Language selection

My Weather Profile Weather Topics  | 

Lake of the Woods: Past 24 Hour Conditions

 

Geraldton Airport

07:00 PM EST 05 February 2023
Disclaimer

This table is a summary of hourly weather conditions for the past 24 hours.
Please note that these observations might not always be representative of weather conditions over their associated marine area.

Date / Time
(EST)
Wind(knots) Conditions Visibility(km) Pressure(kPa) Air tempC) Relative humidity(%) Dew pointC) Wind Chill
05 February 2023
19:00 calm Clear 16 101.9 -19 79 -22 *
18:00 W 3 Clear 16 101.9 -15 67 -20 -19
17:00 NW 3 Mostly Cloudy 16 101.8 -14 65 -20 -18
16:00 NW 8 Mostly Cloudy 16 101.7 -15 64 -20 -22
15:00 NNW 5 Mainly Sunny 16 101.7 -15 61 -20 -20
14:00 NNW 7 Mainly Sunny 16 101.6 -15 63 -21 -23
13:00 N 5 Mostly Cloudy 16 101.6 -15 66 -20 -21
12:00 NNW 4 Partly Cloudy 16 101.6 -16 68 -20 -21
11:00 NNW 2 Cloudy 16 101.6 -17 79 -20 -20
10:00 NNW 4 Cloudy 16 101.6 -18 84 -20 -24
9:00 N 4 Sunny 16 101.5 -22 84 -24 -28
8:00 WNW 2 Clear 16 101.4 -21 85 -22 -24
7:00 NNE 3 Cloudy 16 101.4 -18 84 -20 -22
6:00 N 3 Light Snow 16 101.3 -17 84 -19 -21
5:00 NNW 3 Light Snow 16 101.3 -17 84 -19 -21
4:00 NNW 2 Light Snow 11 101.2 -17 84 -20 -21
3:00 NW 2 Light Snow 15 101.2 -19 83 -21 -22
2:00 calm Light Snow 16 101.2 -19 84 -21 *
1:00 calm Light Snow 16 101.2 -19 83 -21 *
0:00 calm Cloudy 16 101.2 -20 83 -22 *
04 February 2023
23:00 WSW 3 Light Snow 16 101.2 -20 82 -23 -25
22:00 calm Cloudy 16 101.1 -19 86 -21 *
21:00 W 3 Cloudy 16 101.1 -17 86 -19 -21
20:00 WNW 3 Mostly Cloudy 16 101.1 -16 82 -18 -20
19:00 NW 3 Cloudy 16 101.0 -15 79 -18 -19

Zoom-in to make a selection

Map of Great Lakes - Lake Superior marine weather areas Mid Superior - 45001 East Superior - 45004 West Superior - 45006 Slate Island - 45136 Lake Of the Woods - 45148 Kenora Airport Royal Island Armstrong Airport Caribou Island Marathon Airport Pukaskwa National Park Thunder Bay Airport Welcome Island Little Flatland Island Sault Ste. Marie Airport Wawa Airport
Legend:
buoy Buoy
land station Land Station

Great Lakes - Lake Superior Area

Another Region

What we are doing

Date modified: